Time;durP1;ratioP1;P1;durP2;ratioP2;P2;SDS_P1;SDS_P2;PMS_P1;PMS_P2;Temp;Humidity;BMP_temperature;BMP_pressure;BME280_temperature;BME280_humidity;BME280_pressure;Samples;Min_cycle;Max_cycle;Signal;HPM_P1;HPM_P2
2022/02/19 00:01:58;;;;;;;11.90;3.40;;;;;;;3.96;45.78;93984.72;5062746;28;20028;-78
2022/02/19 00:04:24;;;;;;;10.55;3.63;;;;;;;3.96;45.84;93999.75;5063000;28;20025;-80
2022/02/19 00:06:50;;;;;;;10.20;4.38;;;;;;;4.00;45.82;94000.81;5062837;28;20071;-83
2022/02/19 00:09:15;;;;;;;16.08;4.35;;;;;;;4.06;46.27;94007.63;5061642;28;20318;-83
2022/02/19 00:11:41;;;;;;;15.13;4.13;;;;;;;4.06;45.99;93998.94;5062818;28;20037;-82
2022/02/19 00:14:06;;;;;;;16.30;4.28;;;;;;;4.09;46.23;94015.03;5063184;28;20021;-82
2022/02/19 00:16:31;;;;;;;16.55;6.80;;;;;;;4.12;47.11;94025.03;5062415;28;20216;-83
2022/02/19 00:18:57;;;;;;;13.02;4.90;;;;;;;4.14;46.84;94027.41;5062458;28;20021;-83
2022/02/19 00:21:23;;;;;;;11.60;3.38;;;;;;;4.15;45.90;94034.25;5062801;28;20032;-80
2022/02/19 00:23:48;;;;;;;10.88;3.35;;;;;;;4.11;45.91;94034.03;5062450;28;20390;-82
2022/02/19 00:26:13;;;;;;;12.25;3.53;;;;;;;4.12;46.20;94032.94;5062528;28;20082;-82
2022/02/19 00:28:39;;;;;;;15.68;4.32;;;;;;;4.10;46.54;94029.00;5062306;28;20025;-84
2022/02/19 00:31:04;;;;;;;16.27;4.57;;;;;;;4.16;46.28;94036.63;5062878;28;20025;-81
2022/02/19 00:33:31;;;;;;;14.77;5.43;;;;;;;4.13;46.50;94033.72;5062820;28;20033;-83
2022/02/19 00:35:56;;;;;;;15.13;4.80;;;;;;;4.16;46.93;94047.19;5062646;28;20026;-81
2022/02/19 00:38:22;;;;;;;14.68;4.68;;;;;;;4.08;47.11;94037.19;5062378;28;20031;-81
2022/02/19 00:40:48;;;;;;;17.23;6.00;;;;;;;4.10;47.32;94048.25;5062448;28;20075;-81
2022/02/19 00:43:15;;;;;;;19.05;4.93;;;;;;;4.04;47.52;94038.78;5061281;28;20052;-81
2022/02/19 00:45:40;;;;;;;11.73;4.43;;;;;;;4.04;47.50;94038.78;5062261;28;20035;-81
2022/02/19 00:48:06;;;;;;;17.33;4.03;;;;;;;4.01;47.35;94044.59;5062490;28;20087;-80
2022/02/19 00:50:32;;;;;;;14.95;4.25;;;;;;;3.97;47.40;94040.91;5062239;28;20074;-80
2022/02/19 00:52:58;;;;;;;17.08;5.22;;;;;;;3.96;47.64;94018.22;5094782;28;20028;-81
2022/02/19 00:55:24;;;;;;;11.90;4.55;;;;;;;3.90;48.16;94022.72;5062154;28;20087;-80
2022/02/19 00:57:50;;;;;;;16.88;4.15;;;;;;;3.89;48.36;94029.06;5061066;28;20059;-80
2022/02/19 01:00:16;;;;;;;16.65;5.70;;;;;;;3.88;48.69;94029.31;5061069;28;20315;-80
2022/02/19 01:02:42;;;;;;;19.50;6.15;;;;;;;3.78;49.26;94019.56;5062305;28;20037;-80
2022/02/19 01:05:08;;;;;;;16.50;5.30;;;;;;;3.76;48.74;94009.28;5062281;28;20021;-81
2022/02/19 01:07:34;;;;;;;13.52;5.10;;;;;;;3.70;49.03;94006.91;5062195;28;20215;-80
2022/02/19 01:10:00;;;;;;;15.50;3.75;;;;;;;3.67;48.92;94010.88;5065373;28;20024;-79
2022/02/19 01:12:25;;;;;;;21.40;4.20;;;;;;;3.61;48.95;94002.19;5065818;28;20056;-79
2022/02/19 01:14:51;;;;;;;15.27;4.15;;;;;;;3.58;49.13;94007.19;5066240;28;20059;-79
2022/02/19 01:17:16;;;;;;;12.57;4.22;;;;;;;3.57;49.29;94005.63;5066486;28;20012;-78
2022/02/19 01:19:42;;;;;;;10.60;3.97;;;;;;;3.59;49.18;94014.06;5066139;28;20028;-78
2022/02/19 01:22:07;;;;;;;16.23;4.32;;;;;;;3.57;49.31;94014.31;5066258;28;20017;-78
2022/02/19 01:24:33;;;;;;;21.77;4.38;;;;;;;3.53;49.30;94008.00;5066043;28;20134;-78
2022/02/19 01:26:59;;;;;;;17.40;3.05;;;;;;;3.56;49.46;94023.28;5065900;28;20098;-80
2022/02/19 01:29:24;;;;;;;15.77;3.17;;;;;;;3.47;49.74;94018.81;5065797;28;20020;-80
2022/02/19 01:31:50;;;;;;;20.45;4.00;;;;;;;3.46;49.53;94014.59;5065699;28;20070;-80
2022/02/19 01:34:16;;;;;;;8.88;3.42;;;;;;;3.38;49.71;94011.44;5066162;28;20021;-80
2022/02/19 01:36:42;;;;;;;16.48;3.75;;;;;;;3.38;49.77;94008.81;5065894;28;20131;-81
2022/02/19 01:39:07;;;;;;;19.33;4.57;;;;;;;3.39;49.59;93997.19;5065782;28;20025;-80
2022/02/19 01:41:33;;;;;;;23.10;5.00;;;;;;;3.38;49.66;94000.91;5064527;28;20100;-81
2022/02/19 01:44:06;;;;;;;17.17;4.28;;;;;;;3.33;50.25;94003.53;5065571;28;20021;-80
2022/02/19 01:46:32;;;;;;;17.50;4.28;;;;;;;3.36;50.09;93999.59;5065415;28;20027;-81
2022/02/19 01:48:58;;;;;;;22.08;4.20;;;;;;;3.33;50.23;93998.25;5065474;28;20144;-81
2022/02/19 01:51:24;;;;;;;10.57;2.92;;;;;;;3.27;50.40;93990.63;5065263;28;20031;-81
2022/02/19 01:53:49;;;;;;;19.02;4.53;;;;;;;3.30;50.57;93982.19;5065440;28;20104;-81
2022/02/19 01:56:15;;;;;;;12.50;4.57;;;;;;;3.20;51.04;93989.03;5065295;28;20021;-81
2022/02/19 01:58:41;;;;;;;19.15;4.38;;;;;;;3.23;50.64;93982.44;5065488;28;20021;-81
2022/02/19 02:01:06;;;;;;;12.13;3.65;;;;;;;3.27;50.77;93983.50;5065245;28;20020;-80
2022/02/19 02:03:32;;;;;;;15.20;3.78;;;;;;;3.16;50.65;93987.19;5065267;28;20044;-81
2022/02/19 02:05:58;;;;;;;15.70;3.55;;;;;;;3.13;51.14;93985.06;5064940;28;20135;-81
2022/02/19 02:08:23;;;;;;;12.77;3.72;;;;;;;3.17;50.85;93994.81;5064977;28;20028;-80
2022/02/19 02:10:49;;;;;;;12.88;3.10;;;;;;;3.12;51.31;93984.28;5065231;28;20032;-81
2022/02/19 02:13:14;;;;;;;16.80;3.72;;;;;;;3.11;50.82;93995.09;5065004;28;20325;-80
2022/02/19 02:15:40;;;;;;;19.75;6.05;;;;;;;3.14;50.90;93986.69;5065253;28;20069;-80
2022/02/19 02:18:05;;;;;;;17.20;5.35;;;;;;;3.11;50.77;93990.59;5064984;28;20029;-80
2022/02/19 02:20:31;;;;;;;21.13;6.28;;;;;;;3.12;51.12;93997.47;5064919;28;20021;-80
2022/02/19 02:22:58;;;;;;;22.75;4.60;;;;;;;3.11;51.59;93995.09;5063811;28;20021;-79
2022/02/19 02:25:27;;;;;;;9.25;3.13;;;;;;;3.08;51.31;93987.72;5064740;28;20098;-81
2022/02/19 02:27:52;;;;;;;16.75;5.13;;;;;;;3.06;51.41;93998.50;5064860;28;20017;-81
2022/02/19 02:30:18;;;;;;;21.45;5.25;;;;;;;3.03;51.56;93998.25;5064979;28;20024;-81
2022/02/19 02:32:43;;;;;;;19.85;5.38;;;;;;;3.01;51.77;93985.31;5064676;28;20017;-81
2022/02/19 02:35:09;;;;;;;19.20;6.75;;;;;;;3.03;51.57;93991.13;5064673;28;20029;-81
2022/02/19 02:37:34;;;;;;;15.25;4.57;;;;;;;3.00;51.43;93989.03;5064515;28;20044;-80
2022/02/19 02:40:00;;;;;;;16.60;4.28;;;;;;;2.99;51.79;93990.06;5064576;28;20025;-80
2022/02/19 02:42:25;;;;;;;18.10;4.13;;;;;;;2.88;51.82;93991.91;5064664;28;20031;-81
2022/02/19 02:44:52;;;;;;;14.73;4.15;;;;;;;2.92;51.99;93987.69;5064469;28;20024;-81
2022/02/19 02:47:18;;;;;;;12.98;3.70;;;;;;;2.87;51.96;93989.53;5064496;28;20147;-81
2022/02/19 02:49:43;;;;;;;12.48;4.10;;;;;;;2.92;51.99;93992.97;5064492;28;20088;-82
2022/02/19 02:52:09;;;;;;;12.35;5.45;;;;;;;2.88;52.14;94007.69;5064826;28;20021;-81
2022/02/19 02:54:35;;;;;;;15.02;4.35;;;;;;;2.87;52.30;94008.78;5064389;28;20083;-82
2022/02/19 02:57:01;;;;;;;9.00;3.65;;;;;;;2.90;52.36;94000.34;5064244;28;20027;-79
2022/02/19 02:59:26;;;;;;;18.13;4.60;;;;;;;2.88;51.93;93996.38;5064318;28;20028;-78
2022/02/19 03:01:52;;;;;;;12.48;3.55;;;;;;;2.89;52.34;93987.41;5064142;28;20214;-78
2022/02/19 03:04:17;;;;;;;16.90;4.35;;;;;;;2.86;52.40;93996.63;5063983;28;20021;-78
2022/02/19 03:06:43;;;;;;;12.38;3.78;;;;;;;2.86;52.33;93988.75;5064097;28;20267;-78
2022/02/19 03:09:08;;;;;;;11.88;4.43;;;;;;;2.77;52.64;94006.91;5063704;28;20112;-78
2022/02/19 03:11:35;;;;;;;15.77;5.05;;;;;;;2.71;52.51;93996.63;5064001;28;20048;-78
2022/02/19 03:14:02;;;;;;;15.77;3.97;;;;;;;2.64;52.89;93998.69;5063997;28;20272;-77
2022/02/19 03:16:28;;;;;;;16.02;4.57;;;;;;;2.60;52.74;93995.78;5063978;28;20119;-78
2022/02/19 03:18:53;;;;;;;11.18;3.72;;;;;;;2.60;53.30;94001.84;5063839;28;20067;-84
2022/02/19 03:21:19;;;;;;;11.50;4.05;;;;;;;2.52;53.58;93999.72;5063725;28;20048;-84
2022/02/19 03:23:44;;;;;;;14.15;4.07;;;;;;;2.52;53.99;93991.81;5063827;28;20020;-84
2022/02/19 03:26:10;;;;;;;14.30;4.78;;;;;;;2.52;54.26;93991.03;5063608;28;20021;-85
2022/02/19 03:28:39;;;;;;;17.75;4.95;;;;;;;2.50;54.01;94001.81;5063812;28;20020;-84
2022/02/19 03:31:04;;;;;;;18.67;5.28;;;;;;;2.40;54.33;93996.50;5062934;28;20024;-84
2022/02/19 03:33:30;;;;;;;13.18;5.25;;;;;;;2.40;53.99;94002.59;5063554;28;20354;-85
2022/02/19 03:35:55;;;;;;;10.13;4.15;;;;;;;2.39;53.88;94008.88;5063415;28;20203;-84
2022/02/19 03:38:23;;;;;;;13.95;5.25;;;;;;;2.44;53.55;94008.09;5063400;28;20017;-84
2022/02/19 03:40:49;;;;;;;22.45;4.97;;;;;;;2.47;53.46;94007.59;5063644;28;20040;-84
2022/02/19 03:43:14;;;;;;;15.57;3.88;;;;;;;2.45;53.27;93999.19;5063701;28;20029;-85
2022/02/19 03:45:43;;;;;;;18.52;5.53;;;;;;;2.47;53.19;93993.66;5063367;28;20017;-85
2022/02/19 03:48:10;;;;;;;22.45;6.70;;;;;;;2.55;53.17;94015.00;5063356;28;20032;-81
2022/02/19 03:50:36;;;;;;;17.67;5.47;;;;;;;2.55;53.03;94009.72;5063065;28;20016;-81
2022/02/19 03:53:02;;;;;;;23.58;6.82;;;;;;;2.59;53.04;94015.28;5063066;28;20024;-81
2022/02/19 03:55:28;;;;;;;21.63;7.30;;;;;;;2.61;52.75;94016.59;5063022;28;20096;-81
2022/02/19 03:57:53;;;;;;;24.30;6.82;;;;;;;2.60;52.88;94012.38;5063022;28;20083;-81
2022/02/19 04:00:19;;;;;;;25.73;6.70;;;;;;;2.66;52.62;94017.66;5062862;28;20025;-79
2022/02/19 04:02:44;;;;;;;20.98;7.20;;;;;;;2.58;53.09;94025.00;5063198;28;20028;-80
2022/02/19 04:05:12;;;;;;;27.35;7.25;;;;;;;2.59;52.97;94026.59;5061613;28;20327;-80
2022/02/19 04:07:37;;;;;;;21.60;7.30;;;;;;;2.57;52.78;94015.53;5062832;28;20219;-80
2022/02/19 04:10:04;;;;;;;30.63;7.70;;;;;;;2.63;52.70;94010.28;5062969;28;20088;-86
2022/02/19 04:12:29;;;;;;;24.83;7.75;;;;;;;2.63;52.72;94007.66;5062759;28;20032;-87
2022/02/19 04:14:55;;;;;;;23.63;7.50;;;;;;;2.64;52.72;93996.06;5062880;28;20058;-88
2022/02/19 04:17:22;;;;;;;19.67;6.60;;;;;;;2.66;52.75;94009.75;5063051;28;20211;-89
2022/02/19 04:19:50;;;;;;;20.02;6.88;;;;;;;2.60;52.78;94001.84;5062723;28;20009;-80
2022/02/19 04:22:16;;;;;;;15.65;5.80;;;;;;;2.59;52.68;93986.34;5062844;28;20076;-80
2022/02/19 04:24:42;;;;;;;15.60;6.05;;;;;;;2.56;52.76;93990.25;5062797;28;20029;-80
2022/02/19 04:27:08;;;;;;;13.70;4.50;;;;;;;2.53;53.01;93995.25;5062562;28;20048;-80
2022/02/19 04:29:33;;;;;;;17.95;4.57;;;;;;;2.47;53.24;94007.59;5062499;28;20036;-81
2022/02/19 04:31:59;;;;;;;9.60;4.47;;;;;;;2.38;53.10;94001.25;5062473;28;20023;-81
2022/02/19 04:34:25;;;;;;;19.00;4.35;;;;;;;2.40;53.10;93996.50;5062436;28;20074;-82
2022/02/19 04:36:51;;;;;;;14.43;4.07;;;;;;;2.42;52.94;93999.69;5062522;28;20041;-83
2022/02/19 04:39:17;;;;;;;17.92;5.65;;;;;;;2.41;52.89;94000.75;5062607;28;20088;-82
2022/02/19 04:41:43;;;;;;;15.65;4.90;;;;;;;2.45;52.76;93996.53;5061166;28;20017;-79
2022/02/19 04:44:08;;;;;;;16.80;5.57;;;;;;;2.49;52.89;94008.13;5061586;28;20345;-81
2022/02/19 04:46:34;;;;;;;23.95;7.32;;;;;;;2.47;52.98;94012.88;5062511;28;20028;-81
2022/02/19 04:48:59;;;;;;;29.60;7.85;;;;;;;2.46;52.91;93995.47;5062308;28;20021;-78
2022/02/19 04:51:25;;;;;;;22.98;6.53;;;;;;;2.50;52.47;93990.50;5062103;28;20029;-78
2022/02/19 04:53:50;;;;;;;17.10;4.88;;;;;;;2.53;52.94;93998.69;5062178;28;20062;-78
2022/02/19 04:56:16;;;;;;;17.85;4.85;;;;;;;2.48;52.71;93996.00;5062280;28;20009;-78
2022/02/19 04:58:41;;;;;;;19.50;5.07;;;;;;;2.50;52.83;93996.53;5062139;28;20048;-76
2022/02/19 05:01:07;;;;;;;11.50;4.93;;;;;;;2.53;52.85;94006.56;5062029;28;20048;-77
2022/02/19 05:03:32;;;;;;;21.52;4.47;;;;;;;2.51;52.87;94003.41;5062171;28;20021;-76
2022/02/19 05:05:58;;;;;;;18.00;4.80;;;;;;;2.52;53.04;94001.56;5062047;28;20028;-78
2022/02/19 05:08:23;;;;;;;15.80;5.22;;;;;;;2.55;52.95;94009.72;5062176;28;20017;-78
2022/02/19 05:10:49;;;;;;;14.85;4.65;;;;;;;2.57;52.46;93998.97;5062276;28;20024;-78
2022/02/19 05:13:14;;;;;;;12.43;3.63;;;;;;;2.57;52.34;94018.16;5061931;28;20048;-78
2022/02/19 05:15:39;;;;;;;18.92;5.05;;;;;;;2.58;52.54;94009.19;5062058;28;20283;-78
2022/02/19 05:18:08;;;;;;;19.60;5.00;;;;;;;2.59;52.56;94002.13;5062266;28;20139;-80
2022/02/19 05:20:34;;;;;;;16.02;4.63;;;;;;;2.62;52.67;94017.38;5062276;28;20021;-80
2022/02/19 05:22:59;;;;;;;14.43;4.60;;;;;;;2.61;52.65;94019.22;5062161;28;20041;-79
2022/02/19 05:25:25;;;;;;;24.17;5.32;;;;;;;2.59;53.00;94013.44;5062078;28;20024;-79
2022/02/19 05:27:50;;;;;;;16.80;5.45;;;;;;;2.59;52.83;94015.28;5060731;28;20029;-79
2022/02/19 05:30:16;;;;;;;16.20;5.60;;;;;;;2.57;53.00;94018.16;5062217;28;20095;-79
2022/02/19 05:32:41;;;;;;;19.83;7.15;;;;;;;2.56;53.43;94021.81;5060474;28;20032;-79
2022/02/19 05:35:07;;;;;;;26.52;6.88;;;;;;;2.55;53.25;94017.63;5061777;28;20139;-79
2022/02/19 05:37:33;;;;;;;21.05;6.13;;;;;;;2.56;53.92;94019.19;5061662;28;20021;-79
2022/02/19 05:39:59;;;;;;;23.27;6.75;;;;;;;2.52;53.54;94015.50;5061946;28;20017;-79
2022/02/19 05:42:26;;;;;;;27.38;6.60;;;;;;;2.51;53.86;94003.41;5061914;28;20218;-79
2022/02/19 05:44:51;;;;;;;19.05;5.88;;;;;;;2.48;54.16;94009.16;5061895;28;20096;-79
2022/02/19 05:47:18;;;;;;;23.98;6.00;;;;;;;2.43;54.18;94001.28;5061889;28;20021;-80
2022/02/19 05:49:44;;;;;;;25.10;7.55;;;;;;;2.45;54.45;93999.19;5061825;28;20067;-80
2022/02/19 05:52:09;;;;;;;19.15;6.22;;;;;;;2.46;54.38;94003.38;5061952;28;20025;-79
2022/02/19 05:54:35;;;;;;;29.40;7.97;;;;;;;2.50;54.91;94001.03;5062281;28;20024;-79
2022/02/19 05:57:01;;;;;;;22.85;7.07;;;;;;;2.50;54.91;93996.53;5065189;28;20027;-79
2022/02/19 05:59:26;;;;;;;29.33;7.93;;;;;;;2.53;54.52;94006.56;5065244;28;20029;-79
2022/02/19 06:01:51;;;;;;;29.27;9.50;;;;;;;2.55;54.26;93996.56;5065336;28;20074;-80
2022/02/19 06:04:17;;;;;;;59.65;15.13;;;;;;;2.63;54.73;93986.59;5065230;28;20311;-80
2022/02/19 06:06:42;;;;;;;58.33;16.05;;;;;;;2.71;54.22;93992.16;5065016;28;20025;-80
2022/02/19 06:09:08;;;;;;;69.13;18.92;;;;;;;2.73;54.23;93991.91;5065060;28;20020;-79
2022/02/19 06:11:34;;;;;;;63.47;18.10;;;;;;;2.84;54.05;93988.22;5064636;28;20025;-78
2022/02/19 06:14:00;;;;;;;57.40;19.17;;;;;;;2.86;53.74;93983.47;5065031;28;20103;-82
2022/02/19 06:16:25;;;;;;;61.97;16.70;;;;;;;2.94;54.11;93990.06;5065027;28;20087;-82
2022/02/19 06:18:51;;;;;;;46.00;14.50;;;;;;;2.94;53.87;94004.03;5064971;28;20215;-82
2022/02/19 06:21:16;;;;;;;47.90;12.65;;;;;;;2.98;53.52;94007.72;5063678;28;20033;-82
2022/02/19 06:23:42;;;;;;;40.83;13.55;;;;;;;3.04;53.39;94021.69;5065029;28;20036;-82
2022/02/19 06:26:08;;;;;;;62.17;14.98;;;;;;;3.06;53.38;94029.31;5064762;28;20032;-82
2022/02/19 06:28:33;;;;;;;62.88;14.23;;;;;;;3.02;53.87;94047.50;5064665;28;20050;-82
2022/02/19 06:30:59;;;;;;;41.30;13.57;;;;;;;2.91;54.55;94054.59;5064766;28;20028;-78
2022/02/19 06:33:24;;;;;;;48.90;13.07;;;;;;;2.95;55.29;94057.47;5064408;28;20025;-80
2022/02/19 06:35:49;;;;;;;38.05;11.60;;;;;;;2.94;54.86;94064.59;5064822;28;20016;-79
2022/02/19 06:38:15;;;;;;;58.30;13.25;;;;;;;3.01;54.18;94059.06;5064650;28;20086;-79
2022/02/19 06:40:40;;;;;;;47.15;13.05;;;;;;;3.11;54.15;94059.06;5064634;28;20079;-78
2022/02/19 06:43:06;;;;;;;44.55;13.30;;;;;;;3.15;53.80;94065.41;5064603;28;20020;-79
2022/02/19 06:45:32;;;;;;;39.75;14.02;;;;;;;3.20;54.05;94062.78;5064338;28;20017;-80
2022/02/19 06:47:57;;;;;;;55.58;15.50;;;;;;;3.22;54.36;94060.69;5064325;28;20025;-80
2022/02/19 06:50:23;;;;;;;37.65;15.07;;;;;;;3.31;54.04;94066.22;5064409;28;20029;-78
2022/02/19 06:52:48;;;;;;;51.45;15.73;;;;;;;3.31;53.78;94068.06;5064356;28;20303;-79
2022/02/19 06:55:14;;;;;;;54.45;16.85;;;;;;;3.22;54.80;94081.75;5064258;28;20067;-79
2022/02/19 06:57:40;;;;;;;48.03;15.25;;;;;;;3.17;54.91;94083.59;5064036;28;20017;-78
2022/02/19 07:00:08;;;;;;;52.33;17.55;;;;;;;3.21;54.86;94079.38;5064206;28;20037;-78
2022/02/19 07:02:33;;;;;;;36.30;14.68;;;;;;;3.18;55.06;94085.97;5064130;28;20047;-78
2022/02/19 07:04:59;;;;;;;38.85;14.93;;;;;;;3.19;55.40;94076.22;5062895;28;20044;-79
2022/02/19 07:07:25;;;;;;;43.72;15.48;;;;;;;3.28;54.46;94074.66;5062976;28;20073;-81
2022/02/19 07:09:50;;;;;;;38.53;14.68;;;;;;;3.29;54.64;94060.41;5064151;28;20055;-77
2022/02/19 07:12:16;;;;;;;37.60;14.10;;;;;;;3.39;54.38;94057.00;5063940;28;20107;-77
2022/02/19 07:14:41;;;;;;;37.20;14.60;;;;;;;3.48;54.22;94062.53;5063501;28;20029;-78
2022/02/19 07:17:07;;;;;;;45.17;16.05;;;;;;;3.60;54.11;94060.44;5063587;28;20021;-77
2022/02/19 07:19:36;;;;;;;43.78;16.15;;;;;;;3.73;54.39;94059.91;5063837;28;20020;-78
2022/02/19 07:22:03;;;;;;;38.03;15.88;;;;;;;3.86;54.34;94063.06;5063568;28;20021;-78
2022/02/19 07:24:29;;;;;;;46.03;17.33;;;;;;;3.96;54.34;94055.13;5063287;28;20029;-74
2022/02/19 07:26:56;;;;;;;65.25;16.65;;;;;;;4.08;54.00;94055.63;5063320;28;20327;-73
2022/02/19 07:29:22;;;;;;;49.92;15.90;;;;;;;4.23;53.91;94057.44;5063460;28;20028;-74
2022/02/19 07:31:48;;;;;;;48.75;16.10;;;;;;;4.39;53.69;94055.56;5063459;28;20037;-70
2022/02/19 07:34:13;;;;;;;45.15;16.40;;;;;;;4.51;53.11;94042.84;5063289;28;20470;-77
2022/02/19 07:36:39;;;;;;;39.42;15.50;;;;;;;4.68;52.61;94031.97;5063168;28;20043;-77
2022/02/19 07:39:08;;;;;;;35.58;13.63;;;;;;;4.79;52.40;94037.97;5063228;28;20024;-77
2022/02/19 07:41:34;;;;;;;41.83;14.15;;;;;;;4.94;52.01;94031.81;5063052;28;20025;-77
2022/02/19 07:44:00;;;;;;;38.92;12.20;;;;;;;5.08;51.65;94043.34;5063200;28;20071;-77
2022/02/19 07:46:26;;;;;;;30.48;9.65;;;;;;;5.25;50.88;94034.28;5062967;28;20032;-77
2022/02/19 07:48:51;;;;;;;30.77;10.07;;;;;;;5.38;50.40;94039.72;5063177;28;20338;-77
2022/02/19 07:59:29;;;;;;;27.27;7.28;;;;;;;5.89;47.50;94048.31;5063088;28;20052;-79
2022/02/19 08:01:54;;;;;;;29.40;7.10;;;;;;;5.96;47.47;94054.91;5062994;28;20319;-78
2022/02/19 08:04:20;;;;;;;36.58;8.13;;;;;;;6.08;47.47;94049.22;5062959;28;20204;-78
2022/02/19 08:06:46;;;;;;;25.20;7.90;;;;;;;6.20;46.25;94044.31;5062549;28;20048;-78
2022/02/19 08:09:12;;;;;;;15.80;5.95;;;;;;;6.35;45.83;94061.13;5062705;28;20091;-77
2022/02/19 08:11:38;;;;;;;19.65;5.72;;;;;;;6.47;45.66;94058.09;5062577;28;20068;-79
2022/02/19 08:14:03;;;;;;;19.70;5.38;;;;;;;6.57;44.46;94072.03;5062691;28;20056;-79
2022/02/19 08:16:29;;;;;;;19.63;4.88;;;;;;;6.72;43.64;94063.09;5062601;28;20024;-79
2022/02/19 08:18:54;;;;;;;20.98;5.18;;;;;;;6.85;43.46;94060.84;5062491;28;20124;-79
2022/02/19 08:21:23;;;;;;;16.38;4.75;;;;;;;6.98;43.16;94078.66;5062703;28;20036;-78
2022/02/19 08:23:48;;;;;;;21.02;6.18;;;;;;;7.07;42.98;94066.38;5062575;28;20327;-76
2022/02/19 08:26:18;;;;;;;19.40;5.13;;;;;;;7.19;43.00;94058.00;5062276;28;20059;-76
2022/02/19 08:28:44;;;;;;;22.77;5.05;;;;;;;7.34;42.13;94059.63;5062368;28;20047;-76
2022/02/19 08:31:09;;;;;;;26.25;4.57;;;;;;;7.44;41.63;94059.50;5062413;28;20052;-76
2022/02/19 08:33:34;;;;;;;12.98;3.55;;;;;;;7.54;41.19;94061.22;5062502;28;20028;-76
2022/02/19 08:36:00;;;;;;;22.88;4.75;;;;;;;7.67;40.09;94044.53;5062221;28;20025;-77
2022/02/19 08:38:25;;;;;;;20.80;4.03;;;;;;;7.77;40.45;94047.03;5062249;28;20100;-78
2022/02/19 08:40:51;;;;;;;22.45;4.07;;;;;;;7.89;39.97;94048.47;5061171;28;20044;-77
2022/02/19 08:43:16;;;;;;;14.50;4.05;;;;;;;8.03;39.54;94050.06;5062294;28;20029;-76
2022/02/19 08:45:42;;;;;;;12.35;3.88;;;;;;;8.16;39.07;94058.34;5062049;28;20263;-77
2022/02/19 08:48:08;;;;;;;20.50;5.18;;;;;;;8.29;39.11;94041.66;5062219;28;20023;-77
2022/02/19 08:50:37;;;;;;;25.98;4.03;;;;;;;8.45;38.78;94042.19;5061990;28;20048;-77
2022/02/19 08:53:03;;;;;;;16.88;4.15;;;;;;;8.57;38.56;94039.81;5061820;28;20036;-83
2022/02/19 08:55:29;;;;;;;28.33;4.10;;;;;;;8.71;38.40;94039.03;5062034;28;20119;-79
2022/02/19 08:57:55;;;;;;;12.45;3.38;;;;;;;8.79;36.90;94043.63;5062212;28;20044;-87
2022/02/19 09:00:21;;;;;;;14.68;4.00;;;;;;;8.80;36.69;94039.91;5062336;28;20342;-88
2022/02/19 09:02:46;;;;;;;22.83;5.60;;;;;;;8.90;37.15;94045.03;5062246;28;20172;-84
2022/02/19 09:05:13;;;;;;;20.60;4.30;;;;;;;9.03;36.46;94040.75;5062039;28;20056;-86
2022/02/19 09:07:40;;;;;;;20.42;3.83;;;;;;;9.15;35.90;94042.91;5061986;28;20044;-86
2022/02/19 09:10:07;;;;;;;23.75;4.40;;;;;;;9.24;36.41;94055.22;5061949;28;20215;-86
2022/02/19 09:12:34;;;;;;;12.15;3.80;;;;;;;9.36;36.05;94045.91;5062014;28;20052;-87
2022/02/19 09:14:59;;;;;;;14.35;3.92;;;;;;;9.48;35.73;94059.47;5061671;28;20043;-77
2022/02/19 09:17:25;;;;;;;11.77;4.22;;;;;;;9.59;35.10;94060.03;5062494;28;20307;-88
2022/02/19 09:19:50;;;;;;;15.43;3.78;;;;;;;9.61;35.54;94068.50;5061244;28;20013;-73
2022/02/19 09:22:17;;;;;;;15.35;3.80;;;;;;;9.72;34.88;94061.84;5061865;28;20049;-80
2022/02/19 09:24:42;;;;;;;16.52;4.15;;;;;;;9.81;34.38;94046.72;5062187;28;20154;-76
2022/02/19 09:27:08;;;;;;;15.93;3.80;;;;;;;9.95;35.66;94051.19;5062288;28;20141;-77
2022/02/19 09:29:33;;;;;;;13.27;4.07;;;;;;;10.08;35.13;94044.22;5062935;28;20319;-77
2022/02/19 09:31:59;;;;;;;19.50;4.38;;;;;;;10.21;34.39;94038.03;5065926;28;20016;-77
2022/02/19 09:34:24;;;;;;;22.33;4.93;;;;;;;10.29;35.30;94045.28;5064924;28;20033;-77
2022/02/19 09:36:50;;;;;;;15.90;4.70;;;;;;;10.42;35.17;94054.28;5066034;28;20013;-78
2022/02/19 09:39:17;;;;;;;21.58;5.60;;;;;;;10.31;34.00;94063.66;5065986;28;20041;-78
2022/02/19 09:41:46;;;;;;;26.88;5.68;;;;;;;10.38;34.21;94063.97;5065996;28;20017;-78
2022/02/19 09:44:12;;;;;;;29.20;6.00;;;;;;;10.44;33.52;94063.56;5065924;28;20046;-78
2022/02/19 09:46:38;;;;;;;19.90;7.00;;;;;;;10.54;33.29;94075.03;5065876;28;20048;-78
2022/02/19 09:49:05;;;;;;;19.67;5.50;;;;;;;10.50;32.88;94072.22;5066051;28;20021;-78
2022/02/19 09:51:32;;;;;;;23.20;6.50;;;;;;;10.49;33.03;94075.97;5065971;28;20023;-78
2022/02/19 09:53:57;;;;;;;17.83;4.82;;;;;;;10.58;33.37;94079.47;5066036;28;20058;-78
2022/02/19 09:56:27;;;;;;;18.25;4.80;;;;;;;10.56;32.68;94076.31;5065922;28;20036;-78
2022/02/19 09:58:53;;;;;;;19.63;4.40;;;;;;;10.54;32.50;94072.38;5066150;28;20021;-78
2022/02/19 10:01:23;;;;;;;16.83;4.30;;;;;;;10.58;32.35;94079.47;5065625;28;20323;-78
2022/02/19 10:04:03;;;;;;;24.92;4.63;;;;;;;10.61;32.31;94070.06;5065786;28;20021;-78
2022/02/19 10:06:36;;;;;;;22.83;4.65;;;;;;;10.67;33.10;94071.50;5065976;28;20127;-78
2022/02/19 10:09:16;;;;;;;16.60;3.97;;;;;;;10.64;32.44;94067.56;5065461;28;20307;-78
2022/02/19 10:11:43;;;;;;;21.77;5.13;;;;;;;10.62;33.29;94064.44;5065450;28;20033;-79
2022/02/19 10:14:29;;;;;;;14.20;4.40;;;;;;;10.74;32.85;94071.81;5065024;28;20021;-79
2022/02/19 10:17:16;;;;;;;23.80;5.15;;;;;;;10.84;32.68;94060.09;5064381;28;20412;-76
2022/02/19 10:20:02;;;;;;;24.25;5.05;;;;;;;10.94;32.17;94051.81;5063096;28;20028;-79
2022/02/19 10:22:33;;;;;;;14.98;4.45;;;;;;;11.08;32.16;94058.91;5063691;28;20051;-78
2022/02/19 10:24:59;;;;;;;18.23;4.75;;;;;;;11.20;32.58;94051.88;5064314;28;20363;-79
2022/02/19 10:27:42;;;;;;;14.38;4.70;;;;;;;11.36;31.55;94062.88;5064035;28;20036;-79
2022/02/19 10:30:09;;;;;;;20.95;4.47;;;;;;;11.43;31.53;94055.19;5063177;28;20099;-79
2022/02/19 10:32:49;;;;;;;20.60;4.60;;;;;;;11.61;31.21;94055.19;5061962;28;20172;-79
2022/02/19 10:35:15;;;;;;;23.67;4.80;;;;;;;11.74;31.37;94048.91;5062882;28;20056;-79
2022/02/19 10:37:43;;;;;;;19.25;5.03;;;;;;;11.89;31.03;94052.25;5062889;28;20021;-79
2022/02/19 10:40:36;;;;;;;23.92;6.65;;;;;;;12.02;30.92;94043.25;5062735;28;20029;-79
2022/02/19 10:43:07;;;;;;;18.35;4.32;;;;;;;12.19;30.99;94045.09;5062411;28;20031;-79
2022/02/19 10:45:35;;;;;;;17.50;4.22;;;;;;;12.34;30.48;94033.13;5062856;28;20025;-78
2022/02/19 10:48:21;;;;;;;24.25;4.45;;;;;;;12.48;30.26;94024.91;5063770;28;20020;-79
2022/02/19 10:50:48;;;;;;;26.10;5.00;;;;;;;12.58;30.35;94028.00;5064467;28;20218;-79
2022/02/19 10:53:27;;;;;;;14.25;4.47;;;;;;;12.73;29.23;94015.19;5064326;28;20081;-78
2022/02/19 10:55:53;;;;;;;12.68;3.45;;;;;;;12.80;28.71;94010.13;5064353;28;20161;-79
2022/02/19 10:58:20;;;;;;;16.65;4.57;;;;;;;12.89;28.90;94004.75;5064269;28;20032;-78
2022/02/19 11:00:46;;;;;;;14.35;5.75;;;;;;;12.95;28.77;93998.88;5064212;28;20027;-76
2022/02/19 11:03:12;;;;;;;14.68;4.35;;;;;;;13.08;28.62;94013.09;5064001;28;20211;-78
2022/02/19 11:05:39;;;;;;;13.90;4.55;;;;;;;13.16;28.69;93993.53;5063784;28;20024;-78
2022/02/19 11:08:05;;;;;;;18.55;4.53;;;;;;;13.22;28.83;93989.56;5064025;28;20025;-76
2022/02/19 11:10:33;;;;;;;16.58;5.50;;;;;;;13.30;27.45;93998.66;5063856;28;20028;-76
2022/02/19 11:12:59;;;;;;;25.52;4.70;;;;;;;13.30;27.06;93997.88;5063813;28;20045;-76
2022/02/19 11:15:25;;;;;;;14.85;4.10;;;;;;;13.14;27.04;93989.63;5063809;28;20021;-77
2022/02/19 11:17:52;;;;;;;8.63;3.47;;;;;;;13.23;26.87;93987.69;5063670;28;20025;-78
2022/02/19 11:20:18;;;;;;;16.42;4.03;;;;;;;13.35;27.40;93978.94;5063432;28;20338;-77
2022/02/19 11:22:44;;;;;;;9.85;3.80;;;;;;;13.42;27.55;93980.00;5063680;28;20065;-77
2022/02/19 11:25:13;;;;;;;16.83;4.60;;;;;;;13.52;28.23;93978.03;5063452;28;20299;-78
2022/02/19 11:27:53;;;;;;;16.30;4.43;;;;;;;13.61;27.79;93979.50;5063484;28;20021;-78
2022/02/19 11:30:20;;;;;;;15.88;4.18;;;;;;;13.72;28.13;93976.41;5063270;28;20051;-78
2022/02/19 11:32:48;;;;;;;20.38;3.65;;;;;;;13.80;27.67;93967.53;5063387;28;20227;-78
2022/02/19 11:35:30;;;;;;;15.98;3.38;;;;;;;13.94;27.47;93964.53;5063196;28;20088;-77
2022/02/19 11:37:56;;;;;;;7.72;3.20;;;;;;;14.07;26.74;93962.69;5063408;28;20064;-78